createdAt,value
2023-02-08T00:00:24.199Z,9.47
2023-02-08T00:02:52.801Z,7.57
2023-02-08T00:05:21.407Z,4.40
2023-02-08T00:07:49.951Z,11.23
2023-02-08T00:10:18.428Z,10.10
2023-02-08T00:12:48.402Z,5.17
2023-02-08T00:15:17.120Z,8.70
2023-02-08T00:17:45.915Z,10.00
2023-02-08T00:20:15.557Z,5.50
2023-02-08T00:22:44.051Z,6.33
2023-02-08T00:25:12.709Z,3.43
2023-02-08T00:27:41.288Z,10.13
2023-02-08T00:30:11.959Z,12.13
2023-02-08T00:32:40.605Z,6.47
2023-02-08T00:35:09.596Z,9.40
2023-02-08T00:37:38.064Z,4.63
2023-02-08T00:40:06.961Z,8.63
2023-02-08T00:42:35.585Z,7.40
2023-02-08T00:45:06.466Z,9.17
2023-02-08T00:47:36.524Z,7.70
2023-02-08T00:50:05.444Z,4.93
2023-02-08T00:52:33.928Z,6.57
2023-02-08T00:55:02.608Z,5.70
2023-02-08T00:57:31.088Z,7.40
2023-02-08T00:59:59.568Z,4.40
2023-02-08T01:02:28.369Z,5.70
2023-02-08T01:04:58.243Z,3.57
2023-02-08T01:07:26.739Z,6.13
2023-02-08T01:09:55.429Z,8.27
2023-02-08T01:12:24.945Z,9.33
2023-02-08T01:14:53.433Z,5.77
2023-02-08T01:17:22.128Z,5.57
2023-02-08T01:19:50.958Z,6.83
2023-02-08T01:22:20.819Z,6.03
2023-02-08T01:24:49.427Z,5.10
2023-02-08T01:27:18.077Z,4.80
2023-02-08T01:29:46.817Z,4.33
2023-02-08T01:32:15.440Z,7.47
2023-02-08T01:34:44.339Z,3.70
2023-02-08T01:37:12.871Z,11.23
2023-02-08T01:39:42.861Z,1.73
2023-02-08T01:42:13.741Z,3.17
2023-02-08T01:45:01.007Z,4.93
2023-02-08T01:47:29.684Z,8.93
2023-02-08T01:49:58.292Z,5.87
2023-02-08T01:52:28.882Z,3.40
2023-02-08T01:55:01.604Z,3.87
2023-02-08T01:57:30.676Z,2.50
2023-02-08T02:00:00.827Z,4.93
2023-02-08T02:02:29.861Z,4.73
2023-02-08T02:04:58.717Z,4.10
2023-02-08T02:07:28.861Z,6.50
2023-02-08T02:10:01.630Z,3.07
2023-02-08T02:12:31.955Z,6.30
2023-02-08T02:15:01.260Z,7.40
2023-02-08T02:17:29.922Z,2.73
2023-02-08T02:20:03.890Z,4.73
2023-02-08T02:22:51.128Z,3.07
2023-02-08T02:25:46.631Z,5.00
2023-02-08T02:28:29.975Z,2.17
2023-02-08T02:31:12.122Z,2.37
2023-02-08T02:33:49.504Z,3.13
2023-02-08T02:36:20.436Z,5.07
2023-02-08T02:38:55.889Z,2.77
2023-02-08T02:41:45.867Z,3.83
2023-02-08T02:44:20.529Z,3.97
2023-02-08T02:46:52.377Z,3.33
2023-02-08T02:49:26.181Z,2.97
2023-02-08T02:51:58.159Z,4.00
2023-02-08T02:54:29.544Z,4.53
2023-02-08T02:56:59.290Z,3.10
2023-02-08T02:59:28.248Z,1.50
2023-02-08T03:01:57.348Z,8.50
2023-02-08T03:04:40.872Z,8.80
2023-02-08T03:07:17.975Z,2.50
2023-02-08T03:09:54.739Z,5.13
2023-02-08T03:12:32.616Z,3.57
2023-02-08T03:15:07.921Z,3.23
2023-02-08T03:17:42.993Z,4.83
2023-02-08T03:20:13.861Z,2.77
2023-02-08T03:22:49.891Z,3.60
2023-02-08T03:25:20.952Z,3.57
2023-02-08T03:27:52.111Z,5.23
2023-02-08T03:30:22.851Z,2.93
2023-02-08T03:32:53.197Z,5.10
2023-02-08T03:35:22.584Z,5.03
2023-02-08T03:37:56.008Z,3.70
2023-02-08T03:40:26.031Z,3.17
2023-02-08T03:42:56.348Z,3.33
2023-02-08T03:45:27.086Z,4.43
2023-02-08T03:47:57.685Z,1.43
2023-02-08T03:50:26.343Z,4.53
2023-02-08T03:52:57.172Z,5.07
2023-02-08T03:55:27.887Z,3.13
2023-02-08T03:58:00.561Z,5.93
2023-02-08T04:00:29.260Z,4.33
2023-02-08T04:02:59.302Z,2.70
2023-02-08T04:05:27.989Z,3.33
2023-02-08T04:07:58.154Z,6.00
2023-02-08T04:10:26.623Z,1.70
2023-02-08T04:12:55.128Z,3.70
2023-02-08T04:15:23.851Z,3.20
2023-02-08T04:17:52.316Z,5.07
2023-02-08T04:20:20.993Z,8.00
2023-02-08T04:22:49.929Z,6.27
2023-02-08T04:25:19.812Z,3.27
2023-02-08T04:27:48.367Z,5.20
2023-02-08T04:30:17.087Z,2.97
2023-02-08T04:32:45.567Z,2.30
2023-02-08T04:35:14.047Z,4.27
2023-02-08T04:37:42.871Z,4.50
2023-02-08T04:40:12.167Z,4.57
2023-02-08T04:42:42.059Z,3.43
2023-02-08T04:45:11.240Z,3.20
2023-02-08T04:47:39.887Z,5.00
2023-02-08T04:50:08.545Z,7.27
2023-02-08T04:52:37.141Z,5.80
2023-02-08T04:55:05.765Z,3.20
2023-02-08T04:57:34.224Z,3.03
2023-02-08T05:00:04.323Z,3.60
2023-02-08T05:02:32.906Z,10.23
2023-02-08T05:05:01.461Z,4.63
2023-02-08T05:07:30.092Z,7.83
2023-02-08T05:09:58.684Z,8.03
2023-02-08T05:12:27.222Z,9.03
2023-02-08T05:14:55.826Z,9.30
2023-02-08T05:17:25.786Z,3.43
2023-02-08T05:19:54.243Z,15.57
2023-02-08T05:22:22.876Z,3.70
2023-02-08T05:24:51.432Z,6.00
2023-02-08T05:27:20.159Z,4.50
2023-02-08T05:29:48.831Z,7.37
2023-02-08T05:32:18.612Z,3.83
2023-02-08T05:34:48.911Z,4.57
2023-02-08T05:37:17.489Z,5.60
2023-02-08T05:39:46.158Z,5.33
2023-02-08T05:42:14.744Z,3.43
2023-02-08T05:44:43.338Z,3.93
2023-02-08T05:47:11.801Z,9.10
2023-02-08T05:49:40.332Z,6.57
2023-02-08T05:52:10.384Z,4.10
2023-02-08T05:54:38.862Z,9.37
2023-02-08T05:57:07.605Z,6.77
2023-02-08T05:59:36.250Z,4.20
2023-02-08T06:02:04.924Z,4.43
2023-02-08T06:04:33.520Z,6.73
2023-02-08T06:07:02.050Z,4.07
2023-02-08T06:09:33.231Z,6.83
2023-02-08T06:12:01.809Z,8.60
2023-02-08T06:14:30.364Z,6.67
2023-02-08T06:16:58.945Z,5.93
2023-02-08T06:19:27.519Z,2.67
2023-02-08T06:21:56.179Z,7.30
2023-02-08T06:24:25.349Z,3.90
2023-02-08T06:26:55.283Z,3.70
2023-02-08T06:29:23.967Z,6.20
2023-02-08T06:31:52.548Z,8.70
2023-02-08T06:34:21.338Z,2.97
2023-02-08T06:36:50.119Z,5.97
2023-02-08T06:39:18.613Z,6.33
2023-02-08T06:41:47.083Z,6.47
2023-02-08T06:44:17.256Z,7.90
2023-02-08T06:46:45.736Z,4.80
2023-02-08T06:49:14.256Z,10.97
2023-02-08T06:51:42.970Z,9.53
2023-02-08T06:54:11.483Z,7.60
2023-02-08T06:56:39.957Z,5.80
2023-02-08T06:59:08.617Z,11.07
2023-02-08T07:01:38.651Z,6.13
2023-02-08T07:04:07.547Z,7.67
2023-02-08T07:06:36.372Z,6.93
2023-02-08T07:09:04.851Z,8.50
2023-02-08T07:11:33.347Z,3.17
2023-02-08T07:14:02.037Z,3.83
2023-02-08T07:16:30.630Z,6.27
2023-02-08T07:19:00.548Z,4.67
2023-02-08T07:21:29.331Z,12.40
2023-02-08T07:23:57.811Z,5.23
2023-02-08T07:26:26.475Z,12.10
2023-02-08T07:28:55.939Z,7.43
2023-02-08T07:31:24.414Z,9.47
2023-02-08T07:33:52.894Z,5.50
2023-02-08T07:36:23.124Z,6.90
2023-02-08T07:38:51.599Z,11.87
2023-02-08T07:41:20.088Z,4.63
2023-02-08T07:43:48.736Z,7.70
2023-02-08T07:46:18.771Z,9.43
2023-02-08T07:48:49.366Z,9.03
2023-02-08T07:51:18.025Z,10.43
2023-02-08T07:53:47.883Z,14.73
2023-02-08T07:56:16.458Z,12.90
2023-02-08T07:58:45.302Z,11.20
2023-02-08T08:01:21.826Z,12.57
2023-02-08T08:03:51.273Z,6.80
2023-02-08T08:06:19.928Z,9.80
2023-02-08T08:08:49.894Z,6.00
2023-02-08T08:11:19.083Z,9.77
2023-02-08T08:13:47.796Z,9.40
2023-02-08T08:16:16.473Z,10.83
2023-02-08T08:18:48.126Z,8.90
2023-02-08T08:21:16.980Z,10.63
2023-02-08T08:23:45.487Z,7.60
2023-02-08T08:26:16.487Z,14.53
2023-02-08T08:28:46.915Z,6.97
2023-02-08T08:31:16.595Z,6.87
2023-02-08T08:33:45.456Z,15.53
2023-02-08T08:36:14.170Z,10.93
2023-02-08T08:38:42.636Z,10.77
2023-02-08T08:41:11.665Z,8.20
2023-02-08T08:43:41.628Z,7.90
2023-02-08T08:46:10.430Z,5.67
2023-02-08T08:48:39.588Z,9.80
2023-02-08T08:51:08.548Z,6.40
2023-02-08T08:53:37.256Z,6.10
2023-02-08T08:56:06.338Z,8.03
2023-02-08T08:58:34.930Z,3.47
2023-02-08T09:01:04.832Z,8.23
2023-02-08T09:03:33.575Z,10.40
2023-02-08T09:06:03.219Z,4.57
2023-02-08T09:08:31.696Z,9.23
2023-02-08T09:11:06.218Z,9.23
2023-02-08T09:13:34.707Z,7.33
2023-02-08T09:16:10.217Z,8.17
2023-02-08T09:18:38.883Z,14.07
2023-02-08T09:21:07.818Z,6.93
2023-02-08T09:23:36.776Z,7.40
2023-02-08T09:26:05.839Z,6.53
2023-02-08T09:28:34.360Z,9.67
2023-02-08T09:31:10.868Z,8.60
2023-02-08T09:33:39.622Z,8.60
2023-02-08T09:36:08.633Z,9.83
2023-02-08T09:38:39.001Z,7.57
2023-02-08T09:41:15.722Z,8.57
2023-02-08T09:43:50.747Z,6.13
2023-02-08T09:46:22.542Z,6.10
2023-02-08T09:48:52.734Z,7.30
2023-02-08T09:51:24.055Z,4.33
2023-02-08T09:53:57.296Z,8.83
2023-02-08T09:56:28.454Z,8.63
2023-02-08T09:58:58.749Z,7.03
2023-02-08T10:01:29.877Z,7.30
2023-02-08T10:03:59.864Z,11.77
2023-02-08T10:06:28.422Z,5.43
2023-02-08T10:08:56.962Z,5.87
2023-02-08T10:11:32.236Z,5.03
2023-02-08T10:14:10.544Z,4.70
2023-02-08T10:16:48.354Z,7.47
2023-02-08T10:19:24.799Z,4.60
2023-02-08T10:22:01.753Z,7.87
2023-02-08T10:24:38.685Z,7.43
2023-02-08T10:27:10.862Z,5.67
2023-02-08T10:29:54.168Z,2.27
2023-02-08T10:32:30.636Z,4.80
2023-02-08T10:35:02.004Z,7.97
2023-02-08T10:37:34.622Z,4.37
2023-02-08T10:40:10.424Z,6.30
2023-02-08T10:42:39.468Z,5.97
2023-02-08T10:45:23.922Z,4.80
2023-02-08T10:47:55.650Z,2.23
2023-02-08T10:50:30.143Z,1.70
2023-02-08T10:52:58.888Z,2.93
2023-02-08T10:55:27.662Z,3.03
2023-02-08T10:57:59.450Z,3.13
2023-02-08T11:00:29.021Z,3.87
2023-02-08T11:03:00.874Z,4.53
2023-02-08T11:05:35.772Z,5.93
2023-02-08T11:08:08.377Z,3.50
2023-02-08T11:10:38.299Z,2.80
2023-02-08T11:13:08.454Z,1.90
2023-02-08T11:15:41.321Z,1.97
2023-02-08T11:18:19.941Z,4.80
2023-02-08T11:20:50.174Z,1.53
2023-02-08T11:23:23.833Z,2.93
2023-02-08T11:25:53.195Z,1.60
2023-02-08T11:28:29.000Z,0.83
2023-02-08T11:30:58.719Z,1.13
2023-02-08T11:33:28.869Z,5.37
2023-02-08T11:36:04.932Z,3.40
2023-02-08T11:38:35.038Z,2.20
2023-02-08T11:41:04.988Z,0.70
2023-02-08T11:43:34.997Z,1.10
2023-02-08T11:46:04.496Z,1.67
2023-02-08T11:48:38.860Z,5.50
2023-02-08T11:51:07.844Z,3.63
2023-02-08T11:53:37.964Z,2.80
2023-02-08T11:56:08.277Z,4.00
2023-02-08T11:58:38.905Z,2.53
2023-02-08T12:01:08.388Z,2.00
2023-02-08T12:03:40.426Z,4.23
2023-02-08T12:06:17.397Z,2.37
2023-02-08T12:08:52.987Z,1.30
2023-02-08T12:11:25.895Z,0.90
2023-02-08T12:14:02.049Z,1.77
2023-02-08T12:16:37.789Z,3.17
2023-02-08T12:19:18.588Z,1.43
2023-02-08T12:21:47.875Z,0.97
2023-02-08T12:24:20.036Z,0.67
2023-02-08T12:26:53.665Z,0.70
2023-02-08T12:29:45.575Z,2.50
2023-02-08T12:32:33.212Z,1.47
2023-02-08T12:35:20.241Z,1.83
2023-02-08T12:38:12.617Z,0.50
2023-02-08T12:40:52.930Z,4.43
2023-02-08T12:43:26.046Z,0.47
2023-02-08T12:46:02.254Z,0.70
2023-02-08T12:48:39.987Z,0.80
2023-02-08T12:51:15.143Z,0.50
2023-02-08T12:53:45.476Z,3.40
2023-02-08T12:56:16.784Z,0.40
2023-02-08T12:58:46.952Z,0.97
2023-02-08T13:01:17.818Z,1.60
2023-02-08T13:03:49.488Z,0.50
2023-02-08T13:06:22.465Z,1.87
2023-02-08T13:08:55.130Z,2.57
2023-02-08T13:11:26.349Z,0.80
2023-02-08T13:13:58.235Z,3.23
2023-02-08T13:16:28.342Z,1.23
2023-02-08T13:18:59.061Z,1.10
2023-02-08T13:21:31.859Z,0.87
2023-02-08T13:24:00.534Z,1.10
2023-02-08T13:26:31.588Z,0.90
2023-02-08T13:29:02.536Z,1.90
2023-02-08T13:31:32.453Z,2.77
2023-02-08T13:34:02.430Z,1.77
2023-02-08T13:36:34.726Z,3.10
2023-02-08T13:39:04.812Z,1.90
2023-02-08T13:41:34.256Z,2.67
2023-02-08T13:44:03.803Z,1.50
2023-02-08T13:46:39.126Z,3.70
2023-02-08T13:49:08.046Z,3.47
2023-02-08T13:51:57.311Z,6.47
2023-02-08T13:54:27.376Z,2.20
2023-02-08T13:56:55.971Z,2.20
2023-02-08T13:59:33.926Z,2.97
2023-02-08T14:02:22.795Z,2.77
2023-02-08T14:04:52.452Z,4.80
2023-02-08T14:07:28.762Z,3.83
2023-02-08T14:10:09.941Z,2.73
2023-02-08T14:12:41.884Z,3.47
2023-02-08T14:15:26.676Z,1.57
2023-02-08T14:17:58.425Z,6.37
2023-02-08T14:20:29.420Z,5.70
2023-02-08T14:22:59.434Z,4.67
2023-02-08T14:25:32.004Z,2.50
2023-02-08T14:28:01.783Z,3.37
2023-02-08T14:30:31.654Z,7.33
2023-02-08T14:33:16.605Z,2.80
2023-02-08T14:35:52.595Z,4.43
2023-02-08T14:38:36.622Z,5.97
2023-02-08T14:41:06.515Z,4.53
2023-02-08T14:43:36.380Z,3.60
2023-02-08T14:46:23.490Z,5.27
2023-02-08T14:48:52.734Z,4.03
2023-02-08T14:51:25.784Z,2.73
2023-02-08T14:53:56.136Z,3.63
2023-02-08T14:56:28.374Z,2.07
2023-02-08T14:58:59.151Z,2.10
2023-02-08T15:01:34.025Z,2.93
2023-02-08T15:04:03.546Z,2.83
2023-02-08T15:07:05.202Z,0.93
2023-02-08T15:09:37.900Z,1.50
2023-02-08T15:12:09.676Z,2.70
2023-02-08T15:14:39.317Z,1.07
2023-02-08T15:17:07.963Z,2.43
2023-02-08T15:19:38.604Z,1.60
2023-02-08T15:22:20.144Z,3.57
2023-02-08T15:24:52.026Z,1.17
2023-02-08T15:27:29.072Z,1.07
2023-02-08T15:29:57.777Z,2.20
2023-02-08T15:32:27.241Z,2.90
2023-02-08T15:34:56.737Z,3.10
2023-02-08T15:37:25.705Z,2.13
2023-02-08T15:39:55.936Z,1.53
2023-02-08T15:42:26.969Z,2.27
2023-02-08T15:44:55.562Z,1.60
2023-02-08T15:47:27.864Z,2.23
2023-02-08T15:49:57.121Z,3.03
2023-02-08T15:52:26.859Z,3.73
2023-02-08T15:54:55.504Z,1.70
2023-02-08T15:57:29.830Z,3.00
2023-02-08T15:59:58.952Z,5.03
2023-02-08T16:02:29.642Z,4.37
2023-02-08T16:04:58.543Z,4.20
2023-02-08T16:07:29.349Z,6.23
2023-02-08T16:09:58.088Z,6.90
2023-02-08T16:12:29.311Z,6.40
2023-02-08T16:14:58.314Z,4.67
2023-02-08T16:17:34.241Z,4.93
2023-02-08T16:20:02.977Z,4.07
2023-02-08T16:22:33.050Z,3.50
2023-02-08T16:25:20.111Z,4.03
2023-02-08T16:27:50.700Z,5.33
2023-02-08T16:30:21.006Z,4.30
2023-02-08T16:32:50.109Z,3.80
2023-02-08T16:35:24.809Z,6.73
2023-02-08T16:37:59.107Z,8.67
2023-02-08T16:40:43.412Z,8.60
2023-02-08T16:43:19.784Z,8.57
2023-02-08T16:45:48.461Z,10.07
2023-02-08T16:48:33.305Z,19.70
2023-02-08T16:51:01.989Z,17.53
2023-02-08T16:53:41.320Z,18.53
2023-02-08T16:56:11.131Z,24.63
2023-02-08T16:58:41.056Z,18.57
2023-02-08T17:01:11.929Z,18.10
2023-02-08T17:03:40.696Z,17.50
2023-02-08T17:06:09.774Z,20.23
2023-02-08T17:08:38.293Z,19.77
2023-02-08T17:11:07.055Z,22.10
2023-02-08T17:13:35.524Z,17.73
2023-02-08T17:16:05.586Z,25.27
2023-02-08T17:18:35.045Z,21.47
2023-02-08T17:21:03.846Z,17.50
2023-02-08T17:23:32.325Z,17.47
2023-02-08T17:26:01.328Z,19.53
2023-02-08T17:28:31.544Z,22.60
2023-02-08T17:31:00.106Z,20.13
2023-02-08T17:33:30.147Z,18.33
2023-02-08T17:35:58.645Z,20.77
2023-02-08T17:38:28.604Z,19.83
2023-02-08T17:41:00.372Z,22.17
2023-02-08T17:43:29.375Z,19.43
2023-02-08T17:45:57.865Z,24.53
2023-02-08T17:48:27.269Z,22.73
2023-02-08T17:50:57.152Z,23.47
2023-02-08T17:53:25.622Z,16.80
2023-02-08T17:55:54.851Z,17.83
2023-02-08T17:58:23.331Z,22.77
2023-02-08T18:00:51.865Z,23.23
2023-02-08T18:03:20.531Z,22.23
2023-02-08T18:05:49.004Z,24.57
2023-02-08T18:08:18.860Z,28.20
2023-02-08T18:10:47.514Z,31.97
2023-02-08T18:13:16.278Z,35.83
2023-02-08T18:15:45.012Z,33.77
2023-02-08T18:18:14.603Z,40.47
2023-02-08T18:20:44.939Z,34.87
2023-02-08T18:23:13.441Z,34.10
2023-02-08T18:25:43.774Z,50.27
2023-02-08T18:28:15.204Z,31.27
2023-02-08T18:30:44.015Z,27.50
2023-02-08T18:33:13.781Z,33.53
2023-02-08T18:35:43.181Z,31.50
2023-02-08T18:38:11.894Z,27.50
2023-02-08T18:40:43.287Z,38.50
2023-02-08T18:43:11.770Z,36.60
2023-02-08T18:45:40.376Z,38.07
2023-02-08T18:48:08.960Z,35.70
2023-02-08T18:50:37.424Z,31.60
2023-02-08T18:53:06.168Z,30.37
2023-02-08T18:55:34.710Z,34.47
2023-02-08T18:58:04.674Z,34.70
2023-02-08T19:00:33.173Z,37.27
2023-02-08T19:03:01.786Z,30.07
2023-02-08T19:05:30.724Z,36.20
2023-02-08T19:07:59.186Z,40.27
2023-02-08T19:10:27.837Z,36.10
2023-02-08T19:12:56.424Z,31.93
2023-02-08T19:15:26.306Z,29.90
2023-02-08T19:17:56.041Z,30.20
2023-02-08T19:20:24.619Z,33.97
2023-02-08T19:22:53.087Z,38.87
2023-02-08T19:25:21.756Z,33.80
2023-02-08T19:27:51.100Z,31.60
2023-02-08T19:30:20.600Z,34.10
2023-02-08T19:32:50.616Z,31.57
2023-02-08T19:35:19.768Z,30.00
2023-02-08T19:37:50.327Z,32.67
2023-02-08T19:40:19.786Z,32.63
2023-02-08T19:42:48.965Z,34.10
2023-02-08T19:45:17.596Z,27.63
2023-02-08T19:47:51.524Z,27.57
2023-02-08T19:50:21.853Z,26.80
2023-02-08T19:52:50.512Z,20.80
2023-02-08T19:55:19.132Z,30.40
2023-02-08T19:57:47.679Z,32.60
2023-02-08T20:00:23.447Z,33.33
2023-02-08T20:02:52.740Z,20.73
2023-02-08T20:05:22.709Z,32.00
2023-02-08T20:07:51.194Z,29.43
2023-02-08T20:10:19.741Z,30.83
2023-02-08T20:12:48.370Z,24.90
2023-02-08T20:15:16.867Z,31.47
2023-02-08T20:17:45.764Z,29.37
2023-02-08T20:20:14.425Z,32.00
2023-02-08T20:22:44.278Z,32.47
2023-02-08T20:25:12.825Z,32.67
2023-02-08T20:27:41.359Z,23.40
2023-02-08T20:30:11.932Z,39.67
2023-02-08T20:32:40.931Z,29.70
2023-02-08T20:35:09.539Z,27.40
2023-02-08T20:37:38.014Z,30.07
2023-02-08T20:40:08.561Z,26.07
2023-02-08T20:42:37.175Z,41.10
2023-02-08T20:45:06.050Z,29.37
2023-02-08T20:47:41.698Z,27.37
2023-02-08T20:50:19.044Z,28.73
2023-02-08T20:52:49.039Z,32.37
2023-02-08T20:55:19.186Z,27.97
2023-02-08T20:57:47.672Z,30.83
2023-02-08T21:00:16.605Z,24.90
2023-02-08T21:02:45.225Z,28.83
2023-02-08T21:05:13.725Z,34.77
2023-02-08T21:07:42.288Z,31.30
2023-02-08T21:10:10.959Z,21.87
2023-02-08T21:12:40.855Z,23.10
2023-02-08T21:15:09.953Z,25.87
2023-02-08T21:17:41.107Z,25.47
2023-02-08T21:20:10.269Z,22.33
2023-02-08T21:22:38.940Z,25.67
2023-02-08T21:25:07.781Z,27.03
2023-02-08T21:27:36.308Z,32.67
2023-02-08T21:30:06.721Z,27.53
2023-02-08T21:32:35.436Z,24.93
2023-02-08T21:35:04.066Z,28.67
2023-02-08T21:37:35.209Z,28.73
2023-02-08T21:40:03.846Z,27.97
2023-02-08T21:42:32.377Z,26.47
2023-02-08T21:45:00.900Z,28.67
2023-02-08T21:47:30.948Z,33.60
2023-02-08T21:50:17.183Z,32.00
2023-02-08T21:53:03.241Z,40.60
2023-02-08T21:55:31.984Z,29.67
2023-02-08T21:58:00.646Z,27.83
2023-02-08T22:00:29.308Z,29.07
2023-02-08T22:02:59.283Z,34.30
2023-02-08T22:05:45.572Z,27.17
2023-02-08T22:08:14.228Z,29.50
2023-02-08T22:10:50.167Z,32.70
2023-02-08T22:13:25.471Z,35.40
2023-02-08T22:15:54.182Z,33.77
2023-02-08T22:18:24.215Z,32.93
2023-02-08T22:20:53.171Z,39.40
2023-02-08T22:23:21.806Z,38.63
2023-02-08T22:25:50.412Z,36.47
2023-02-08T22:28:19.128Z,45.20
2023-02-08T22:30:49.281Z,34.93
2023-02-08T22:33:17.955Z,37.57
2023-02-08T22:35:47.989Z,37.77
2023-02-08T22:38:16.486Z,42.17
2023-02-08T22:40:45.430Z,42.07
2023-02-08T22:43:14.295Z,47.07
2023-02-08T22:45:43.233Z,42.87
2023-02-08T22:48:11.864Z,38.20
2023-02-08T22:50:40.681Z,42.57
2023-02-08T22:53:10.617Z,37.20
2023-02-08T22:55:39.109Z,45.90
2023-02-08T22:58:07.964Z,37.17
2023-02-08T23:00:36.466Z,43.47
2023-02-08T23:03:05.766Z,37.07
2023-02-08T23:05:34.552Z,41.83
2023-02-08T23:08:03.061Z,42.87
2023-02-08T23:10:32.942Z,37.77
2023-02-08T23:13:01.611Z,36.63
2023-02-08T23:15:30.100Z,34.63
2023-02-08T23:17:58.709Z,42.00
2023-02-08T23:20:27.625Z,37.80
2023-02-08T23:22:56.103Z,39.57
2023-02-08T23:25:24.631Z,36.33
2023-02-08T23:27:54.902Z,33.70
2023-02-08T23:30:23.476Z,38.23
2023-02-08T23:32:51.952Z,34.73
2023-02-08T23:35:20.653Z,29.63
2023-02-08T23:37:49.325Z,38.27
2023-02-08T23:40:17.812Z,39.43
2023-02-08T23:42:46.469Z,33.30
2023-02-08T23:45:16.351Z,31.03
2023-02-08T23:47:44.942Z,30.70
2023-02-08T23:50:14.295Z,28.17
2023-02-08T23:52:43.061Z,23.93
2023-02-08T23:55:11.680Z,26.00
2023-02-08T23:57:40.924Z,25.20
